createdAt,value
2023-03-13T00:01:43.231Z,24.40
2023-03-13T00:04:11.283Z,16.00
2023-03-13T00:06:39.758Z,21.00
2023-03-13T00:09:09.969Z,19.40
2023-03-13T00:11:37.992Z,25.60
2023-03-13T00:14:06.449Z,20.00
2023-03-13T00:16:37.485Z,20.25
2023-03-13T00:19:06.053Z,19.75
2023-03-13T00:21:34.192Z,18.50
2023-03-13T00:24:02.237Z,16.00
2023-03-13T00:26:31.709Z,17.00
2023-03-13T00:28:59.768Z,15.80
2023-03-13T00:31:28.730Z,26.80
2023-03-13T00:33:58.552Z,19.40
2023-03-13T00:36:27.539Z,19.50
2023-03-13T00:38:55.952Z,22.25
2023-03-13T00:41:24.942Z,20.60
2023-03-13T00:43:54.443Z,19.00
2023-03-13T00:46:23.271Z,20.00
2023-03-13T00:48:51.657Z,19.00
2023-03-13T00:51:20.162Z,17.00
2023-03-13T00:53:49.476Z,15.50
2023-03-13T00:56:17.967Z,24.80
2023-03-13T00:58:46.581Z,19.50
2023-03-13T01:01:16.916Z,20.80
2023-03-13T01:03:45.962Z,19.75
2023-03-13T01:06:14.876Z,20.40
2023-03-13T01:08:42.949Z,21.50
2023-03-13T01:11:11.797Z,22.00
2023-03-13T01:13:39.861Z,17.00
2023-03-13T01:16:08.856Z,14.60
2023-03-13T01:18:40.430Z,20.00
2023-03-13T01:21:08.500Z,18.20
2023-03-13T01:23:36.679Z,20.50
2023-03-13T01:26:05.803Z,21.25
2023-03-13T01:28:34.012Z,24.50
2023-03-13T01:31:02.115Z,16.00
2023-03-13T01:33:31.209Z,17.00
2023-03-13T01:36:03.979Z,14.60
2023-03-13T01:38:32.109Z,19.40
2023-03-13T01:41:00.132Z,17.80
2023-03-13T01:43:29.046Z,17.00
2023-03-13T01:46:01.973Z,19.33
2023-03-13T01:48:39.364Z,15.00
2023-03-13T01:51:10.209Z,16.00
2023-03-13T01:53:39.338Z,11.00
2023-03-13T01:56:10.121Z,11.25
2023-03-13T01:58:38.158Z,21.40
2023-03-13T02:01:06.780Z,17.20
2023-03-13T02:03:34.814Z,15.40
2023-03-13T02:06:02.819Z,16.33
2023-03-13T02:08:33.702Z,16.00
2023-03-13T02:11:05.715Z,14.00
2023-03-13T02:13:33.747Z,17.60
2023-03-13T02:16:01.834Z,14.80
2023-03-13T02:18:30.153Z,12.00
2023-03-13T02:21:01.400Z,13.20
2023-03-13T02:23:32.682Z,13.20
2023-03-13T02:26:02.224Z,15.67
2023-03-13T02:28:35.682Z,15.60
2023-03-13T02:31:07.339Z,14.00
2023-03-13T02:33:37.971Z,23.40
2023-03-13T02:36:06.883Z,11.00
2023-03-13T02:38:38.325Z,18.80
2023-03-13T02:41:07.985Z,16.00
2023-03-13T02:43:36.959Z,16.00
2023-03-13T02:46:07.278Z,15.40
2023-03-13T02:48:38.825Z,17.00
2023-03-13T02:51:09.988Z,12.00
2023-03-13T02:53:38.091Z,14.40
2023-03-13T02:56:08.430Z,18.20
2023-03-13T02:58:49.905Z,14.00
2023-03-13T03:01:20.103Z,13.20
2023-03-13T03:03:48.903Z,10.75
2023-03-13T03:06:17.084Z,19.50
2023-03-13T03:08:45.667Z,9.00
2023-03-13T03:11:15.916Z,18.00
2023-03-13T03:13:47.488Z,8.00
2023-03-13T03:16:18.817Z,8.60
2023-03-13T03:18:47.102Z,16.00
2023-03-13T03:21:15.188Z,15.00
2023-03-13T03:23:43.290Z,11.60
2023-03-13T03:26:11.494Z,16.00
2023-03-13T03:28:41.761Z,10.60
2023-03-13T03:31:14.634Z,12.00
2023-03-13T03:33:42.987Z,17.00
2023-03-13T03:36:15.363Z,16.00
2023-03-13T03:38:43.536Z,15.75
2023-03-13T03:41:14.034Z,9.00
2023-03-13T03:43:43.641Z,9.75
2023-03-13T03:46:13.884Z,11.80
2023-03-13T03:48:42.094Z,13.25
2023-03-13T03:51:12.672Z,11.50
2023-03-13T03:53:43.292Z,13.25
2023-03-13T03:56:11.343Z,12.75
2023-03-13T03:58:46.636Z,9.00
2023-03-13T04:01:19.795Z,16.25
2023-03-13T04:03:48.527Z,11.00
2023-03-13T04:06:16.905Z,15.00
2023-03-13T04:08:45.780Z,8.40
2023-03-13T04:11:17.040Z,11.00
2023-03-13T04:13:51.699Z,15.50
2023-03-13T04:16:19.841Z,14.40
2023-03-13T04:18:49.161Z,16.75
2023-03-13T04:21:18.544Z,10.60
2023-03-13T04:24:16.205Z,20.00
2023-03-13T04:26:45.749Z,12.00
2023-03-13T04:29:16.125Z,8.50
2023-03-13T04:31:52.967Z,9.60
2023-03-13T04:34:39.824Z,14.40
2023-03-13T04:37:35.989Z,10.80
2023-03-13T04:40:14.517Z,12.80
2023-03-13T04:42:45.576Z,7.40
2023-03-13T04:45:39.531Z,11.75
2023-03-13T04:48:19.652Z,10.20
2023-03-13T04:50:58.187Z,15.20
2023-03-13T04:53:31.270Z,12.00
2023-03-13T04:56:06.901Z,11.00
2023-03-13T04:58:55.494Z,12.00
2023-03-13T05:01:41.456Z,16.40
2023-03-13T05:04:16.560Z,12.00
2023-03-13T05:07:04.871Z,8.00
2023-03-13T05:09:51.915Z,9.60
2023-03-13T05:12:38.716Z,8.60
2023-03-13T05:15:32.729Z,10.00
2023-03-13T05:18:23.978Z,9.60
2023-03-13T05:21:15.425Z,8.50
2023-03-13T05:24:02.005Z,15.00
2023-03-13T05:26:40.794Z,20.25
2023-03-13T05:29:24.143Z,12.40
2023-03-13T05:32:15.414Z,15.00
2023-03-13T05:35:01.823Z,10.00
2023-03-13T05:37:50.272Z,11.25
2023-03-13T05:40:35.043Z,12.00
2023-03-13T05:43:25.959Z,7.00
2023-03-13T05:46:19.764Z,9.40
2023-03-13T05:49:26.169Z,13.50
2023-03-13T05:52:04.536Z,7.20
2023-03-13T05:54:32.616Z,10.60
2023-03-13T05:57:22.203Z,15.00
2023-03-13T05:59:56.188Z,10.60
2023-03-13T06:02:44.556Z,12.00
2023-03-13T06:05:17.733Z,10.60
2023-03-13T06:07:48.012Z,11.00
2023-03-13T06:10:16.173Z,9.00
2023-03-13T06:12:44.257Z,11.00
2023-03-13T06:15:14.088Z,13.75
2023-03-13T06:17:56.296Z,8.33
2023-03-13T06:20:24.409Z,16.00
2023-03-13T06:22:53.784Z,6.80
2023-03-13T06:25:22.606Z,10.00
2023-03-13T06:27:50.630Z,6.60
2023-03-13T06:30:19.369Z,4.00
2023-03-13T06:32:47.738Z,12.20
2023-03-13T06:35:15.961Z,8.40
2023-03-13T06:37:44.065Z,14.80
2023-03-13T06:40:14.491Z,9.00
2023-03-13T06:42:42.529Z,12.60
2023-03-13T06:45:12.006Z,9.40
2023-03-13T06:47:40.036Z,16.50
2023-03-13T06:50:09.073Z,11.40
2023-03-13T06:52:43.918Z,11.00
2023-03-13T06:55:13.988Z,10.80
2023-03-13T06:57:42.024Z,10.00
2023-03-13T07:00:12.504Z,14.50
2023-03-13T07:02:40.544Z,8.00
2023-03-13T07:05:09.523Z,14.00
2023-03-13T07:07:37.672Z,8.00
2023-03-13T07:10:06.598Z,9.00
2023-03-13T07:12:37.101Z,9.40
2023-03-13T07:15:05.631Z,5.00
2023-03-13T07:17:33.766Z,12.00
2023-03-13T07:20:01.909Z,9.50
2023-03-13T07:22:30.138Z,10.00
2023-03-13T07:24:58.216Z,8.60
2023-03-13T07:27:26.380Z,11.60
2023-03-13T07:29:55.813Z,5.75
2023-03-13T07:32:23.909Z,11.00
2023-03-13T07:34:52.032Z,11.00
2023-03-13T07:37:20.074Z,9.00
2023-03-13T07:39:48.143Z,9.50
2023-03-13T07:42:16.191Z,10.80
2023-03-13T07:44:44.249Z,17.40
2023-03-13T07:47:13.685Z,34.00
2023-03-13T07:49:44.171Z,35.20
2023-03-13T07:52:12.975Z,63.75
2023-03-13T07:54:41.090Z,27.50
2023-03-13T07:57:09.205Z,15.50
2023-03-13T07:59:37.313Z,14.40
2023-03-13T08:02:05.879Z,51.80
2023-03-13T08:04:35.344Z,40.75
2023-03-13T08:07:03.398Z,22.60
2023-03-13T08:09:33.688Z,15.20
2023-03-13T08:12:01.744Z,17.75
2023-03-13T08:14:29.830Z,14.00
2023-03-13T08:16:57.902Z,22.25
2023-03-13T08:19:26.071Z,16.00
2023-03-13T08:21:55.458Z,21.40
2023-03-13T08:24:23.540Z,11.50
2023-03-13T08:26:51.600Z,9.50
2023-03-13T08:29:19.643Z,14.00
2023-03-13T08:31:48.628Z,11.80
2023-03-13T08:34:17.487Z,13.00
2023-03-13T08:36:45.567Z,25.40
2023-03-13T08:39:15.796Z,6.00
2023-03-13T08:41:43.912Z,20.40
2023-03-13T08:44:12.626Z,12.60
2023-03-13T08:46:40.824Z,11.00
2023-03-13T08:49:09.583Z,5.00
2023-03-13T08:51:37.861Z,17.20
2023-03-13T08:54:06.228Z,11.25
2023-03-13T08:56:35.916Z,10.00
2023-03-13T08:59:05.213Z,7.00
2023-03-13T09:01:34.321Z,6.50
2023-03-13T09:04:04.531Z,10.75
2023-03-13T09:06:33.511Z,6.00
2023-03-13T09:09:01.565Z,10.00
2023-03-13T09:11:29.785Z,13.67
2023-03-13T09:13:59.926Z,9.60
2023-03-13T09:16:28.795Z,11.00
2023-03-13T09:18:57.293Z,11.00
2023-03-13T09:21:26.096Z,35.80
2023-03-13T09:23:54.152Z,18.60
2023-03-13T09:26:23.435Z,9.00
2023-03-13T09:28:51.906Z,12.60
2023-03-13T09:31:22.356Z,30.40
2023-03-13T09:33:51.211Z,13.80
2023-03-13T09:36:22.018Z,23.60
2023-03-13T09:38:50.991Z,9.50
2023-03-13T09:41:25.484Z,11.00
2023-03-13T09:43:57.315Z,15.50
2023-03-13T09:46:29.334Z,15.20
2023-03-13T09:48:58.783Z,13.50
2023-03-13T09:51:29.141Z,11.75
2023-03-13T09:53:59.523Z,6.00
2023-03-13T09:56:30.316Z,12.00
2023-03-13T09:59:00.188Z,11.00
2023-03-13T10:01:31.342Z,10.80
2023-03-13T10:04:12.721Z,7.50
2023-03-13T10:06:42.587Z,11.60
2023-03-13T10:09:17.304Z,9.60
2023-03-13T10:11:47.384Z,12.00
2023-03-13T10:14:17.909Z,24.00
2023-03-13T10:16:48.505Z,6.20
2023-03-13T10:19:17.506Z,5.25
2023-03-13T10:21:46.378Z,10.00
2023-03-13T10:24:17.529Z,13.40
2023-03-13T10:26:45.598Z,17.80
2023-03-13T10:29:21.786Z,21.50
2023-03-13T10:31:55.749Z,10.00
2023-03-13T10:34:23.845Z,7.60
2023-03-13T10:36:55.773Z,7.75
2023-03-13T10:39:24.526Z,6.00
2023-03-13T10:41:53.224Z,21.00
2023-03-13T10:44:22.388Z,10.50
2023-03-13T10:46:52.276Z,22.75
2023-03-13T10:49:21.000Z,20.20
2023-03-13T10:51:50.545Z,6.25
2023-03-13T10:54:23.408Z,7.25
2023-03-13T10:56:51.536Z,10.60
2023-03-13T10:59:21.810Z,11.00
2023-03-13T11:01:49.928Z,9.50
2023-03-13T11:04:29.854Z,9.00
2023-03-13T11:07:02.346Z,6.00
2023-03-13T11:09:30.449Z,6.00
2023-03-13T11:12:03.629Z,5.00
2023-03-13T11:14:31.698Z,5.00
2023-03-13T11:17:03.345Z,19.20
2023-03-13T11:19:46.925Z,7.60
2023-03-13T11:22:26.773Z,7.40
2023-03-13T11:24:59.225Z,8.20
2023-03-13T11:27:30.900Z,6.40
2023-03-13T11:30:17.396Z,5.00
2023-03-13T11:32:48.725Z,3.40
2023-03-13T11:35:22.301Z,6.00
2023-03-13T11:37:51.446Z,6.00
2023-03-13T11:40:21.681Z,4.00
2023-03-13T11:43:06.526Z,3.80
2023-03-13T11:45:50.691Z,3.00
2023-03-13T11:48:22.469Z,22.80
2023-03-13T11:50:53.568Z,4.75
2023-03-13T11:53:28.079Z,5.00
2023-03-13T11:56:00.495Z,6.00
2023-03-13T11:58:43.049Z,5.00
2023-03-13T12:01:12.871Z,4.00
2023-03-13T12:03:42.191Z,5.00
2023-03-13T12:06:27.642Z,6.00
2023-03-13T12:08:58.717Z,6.75
2023-03-13T12:11:28.248Z,3.60
2023-03-13T12:13:58.982Z,5.50
2023-03-13T12:16:30.542Z,5.00
2023-03-13T12:18:58.626Z,4.00
2023-03-13T12:21:31.326Z,4.00
2023-03-13T12:24:01.877Z,10.50
2023-03-13T12:26:34.986Z,12.00
2023-03-13T12:29:07.507Z,4.00
2023-03-13T12:31:37.155Z,5.00
2023-03-13T12:34:11.110Z,2.00
2023-03-13T12:36:42.796Z,7.00
2023-03-13T12:39:21.588Z,4.00
2023-03-13T12:41:51.454Z,8.60
2023-03-13T12:44:20.167Z,4.00
2023-03-13T12:46:48.757Z,5.60
2023-03-13T12:49:56.104Z,5.00
2023-03-13T12:53:19.053Z,3.00
2023-03-13T12:56:16.629Z,10.40
2023-03-13T12:58:47.502Z,12.20
2023-03-13T13:01:18.229Z,5.80
2023-03-13T13:03:52.350Z,4.80
2023-03-13T13:06:20.626Z,2.00
2023-03-13T13:08:49.642Z,8.00
2023-03-13T13:11:48.361Z,5.00
2023-03-13T13:14:59.162Z,4.00
2023-03-13T13:17:43.290Z,2.20
2023-03-13T13:20:32.119Z,3.60
2023-03-13T13:23:34.049Z,5.00
2023-03-13T13:26:41.657Z,1.00
2023-03-13T13:29:56.041Z,4.00
2023-03-13T13:32:45.561Z,2.00
2023-03-13T13:35:32.028Z,3.00
2023-03-13T13:38:23.472Z,4.00
2023-03-13T13:41:02.059Z,2.00
2023-03-13T13:43:31.948Z,2.75
2023-03-13T13:46:02.454Z,3.00
2023-03-13T13:48:34.260Z,10.80
2023-03-13T13:51:25.498Z,12.00
2023-03-13T13:53:56.065Z,4.40
2023-03-13T13:56:50.324Z,4.00
2023-03-13T13:59:27.071Z,2.00
2023-03-13T14:02:24.874Z,15.20
2023-03-13T14:04:56.664Z,2.00
2023-03-13T14:07:30.993Z,5.00
2023-03-13T14:10:07.908Z,7.00
2023-03-13T14:12:36.595Z,2.00
2023-03-13T14:15:15.665Z,3.20
2023-03-13T14:17:44.824Z,1.00
2023-03-13T14:20:31.592Z,2.00
2023-03-13T14:23:01.772Z,3.20
2023-03-13T14:25:31.075Z,3.00
2023-03-13T14:27:59.160Z,2.00
2023-03-13T14:30:27.375Z,1.40
2023-03-13T14:32:55.494Z,2.00
2023-03-13T14:35:24.895Z,2.00
2023-03-13T14:37:54.521Z,16.60
2023-03-13T14:40:25.793Z,2.00
2023-03-13T14:42:54.701Z,3.00
2023-03-13T14:45:24.877Z,3.00
2023-03-13T14:47:53.404Z,3.00
2023-03-13T14:50:22.358Z,2.00
2023-03-13T14:52:52.984Z,2.00
2023-03-13T14:55:42.052Z,3.00
2023-03-13T14:58:27.205Z,2.00
2023-03-13T15:00:55.611Z,1.00
2023-03-13T15:03:25.858Z,2.00
2023-03-13T15:06:21.956Z,2.40
2023-03-13T15:09:08.742Z,3.00
2023-03-13T15:11:37.503Z,3.60
2023-03-13T15:14:05.539Z,3.00
2023-03-13T15:16:33.648Z,2.00
2023-03-13T15:19:01.724Z,2.00
2023-03-13T15:21:30.842Z,5.00
2023-03-13T15:24:02.290Z,2.00
2023-03-13T15:26:30.503Z,1.00
2023-03-13T15:28:58.546Z,17.50
2023-03-13T15:31:28.168Z,4.00
2023-03-13T15:33:57.940Z,3.00
2023-03-13T15:36:26.389Z,3.20
2023-03-13T15:38:54.500Z,1.00
2023-03-13T15:41:24.272Z,2.00
2023-03-13T15:43:55.523Z,3.75
2023-03-13T15:46:23.798Z,5.75
2023-03-13T15:48:51.990Z,4.00
2023-03-13T15:51:20.995Z,2.00
2023-03-13T15:53:49.220Z,4.00
2023-03-13T15:56:18.033Z,3.00
2023-03-13T15:58:48.100Z,2.00
2023-03-13T16:01:17.195Z,5.25
2023-03-13T16:03:45.362Z,2.00
2023-03-13T16:06:17.689Z,13.00
2023-03-13T16:08:45.988Z,12.00
2023-03-13T16:11:15.065Z,4.00
2023-03-13T16:13:43.156Z,8.00
2023-03-13T16:16:21.762Z,12.50
2023-03-13T16:18:50.390Z,12.50
2023-03-13T16:21:20.401Z,12.20
2023-03-13T16:23:48.603Z,21.25
2023-03-13T16:26:17.705Z,10.00
2023-03-13T16:28:45.894Z,11.00
2023-03-13T16:31:20.448Z,18.00
2023-03-13T16:33:48.901Z,16.20
2023-03-13T16:36:17.990Z,46.50
2023-03-13T16:38:46.206Z,46.00
2023-03-13T16:41:15.652Z,36.75
2023-03-13T16:43:43.756Z,14.00
2023-03-13T16:46:15.826Z,17.40
2023-03-13T16:48:45.375Z,13.40
2023-03-13T16:51:18.220Z,40.00
2023-03-13T16:53:47.412Z,17.40
2023-03-13T16:56:26.161Z,42.60
2023-03-13T16:58:54.530Z,11.80
2023-03-13T17:01:23.464Z,12.00
2023-03-13T17:03:53.010Z,6.60
2023-03-13T17:06:22.341Z,11.25
2023-03-13T17:08:50.541Z,3.00
2023-03-13T17:11:19.421Z,2.00
2023-03-13T17:13:48.468Z,6.00
2023-03-13T17:16:18.074Z,5.00
2023-03-13T17:18:47.368Z,5.00
2023-03-13T17:21:17.855Z,4.00
2023-03-13T17:23:46.001Z,12.20
2023-03-13T17:26:19.419Z,8.75
2023-03-13T17:28:48.073Z,12.00
2023-03-13T17:31:16.171Z,8.50
2023-03-13T17:33:44.254Z,25.00
2023-03-13T17:36:18.313Z,12.40
2023-03-13T17:38:46.513Z,14.00
2023-03-13T17:41:15.424Z,12.80
2023-03-13T17:43:43.550Z,27.60
2023-03-13T17:46:16.820Z,22.00
2023-03-13T17:48:45.132Z,9.00
2023-03-13T17:51:19.884Z,6.60
2023-03-13T17:53:48.017Z,7.00
2023-03-13T17:56:17.651Z,5.00
2023-03-13T17:58:45.705Z,2.25
2023-03-13T18:01:15.059Z,3.50
2023-03-13T18:03:43.566Z,3.00
2023-03-13T18:06:19.690Z,3.00
2023-03-13T18:08:48.146Z,1.00
2023-03-13T18:11:17.319Z,3.00
2023-03-13T18:13:45.689Z,3.00
2023-03-13T18:16:30.469Z,4.00
2023-03-13T18:18:58.611Z,3.00
2023-03-13T18:21:28.040Z,2.00
2023-03-13T18:23:57.158Z,8.20
2023-03-13T18:26:28.185Z,4.00
2023-03-13T18:29:00.265Z,4.00
2023-03-13T18:31:29.765Z,5.50
2023-03-13T18:33:58.925Z,4.00
2023-03-13T18:36:28.337Z,3.00
2023-03-13T18:38:56.518Z,4.00
2023-03-13T18:41:24.657Z,4.00
2023-03-13T18:43:52.767Z,3.25
2023-03-13T18:46:21.744Z,3.00
2023-03-13T18:48:49.803Z,2.00
2023-03-13T18:51:17.908Z,4.00
2023-03-13T18:53:47.407Z,3.00
2023-03-13T18:56:17.585Z,4.00
2023-03-13T18:58:47.935Z,3.80
2023-03-13T19:01:18.743Z,3.00
2023-03-13T19:03:46.945Z,3.00
2023-03-13T19:06:21.403Z,4.00
2023-03-13T19:08:51.704Z,3.00
2023-03-13T19:11:22.813Z,3.00
2023-03-13T19:13:50.956Z,4.00
2023-03-13T19:16:19.914Z,2.00
2023-03-13T19:18:48.409Z,3.60
2023-03-13T19:21:17.960Z,2.00
2023-03-13T19:23:46.029Z,4.00
2023-03-13T19:26:20.234Z,2.67
2023-03-13T19:28:48.312Z,1.00
2023-03-13T19:31:17.696Z,4.50
2023-03-13T19:33:47.602Z,3.20
2023-03-13T19:36:16.053Z,2.00
2023-03-13T19:38:44.150Z,2.00
2023-03-13T19:41:12.530Z,3.00
2023-03-13T19:43:42.080Z,5.00
2023-03-13T19:46:21.646Z,2.00
2023-03-13T19:48:49.713Z,2.00
2023-03-13T19:51:17.744Z,3.00
2023-03-13T19:53:45.805Z,2.00
2023-03-13T19:56:18.222Z,4.00
2023-03-13T19:58:48.018Z,2.00
2023-03-13T20:01:17.835Z,3.00
2023-03-13T20:03:46.280Z,3.80
2023-03-13T20:06:16.960Z,2.20
2023-03-13T20:08:45.109Z,4.50
2023-03-13T20:11:13.299Z,2.00
2023-03-13T20:13:41.544Z,2.00
2023-03-13T20:16:11.910Z,3.00
2023-03-13T20:18:40.177Z,5.00
2023-03-13T20:21:08.234Z,5.60
2023-03-13T20:23:36.411Z,5.00
2023-03-13T20:26:05.992Z,3.40
2023-03-13T20:28:34.057Z,3.00
2023-03-13T20:31:02.146Z,4.20
2023-03-13T20:33:31.757Z,3.20
2023-03-13T20:36:00.363Z,2.00
2023-03-13T20:38:28.627Z,3.00
2023-03-13T20:40:57.377Z,7.00
2023-03-13T20:43:25.513Z,6.75
2023-03-13T20:45:53.545Z,4.00
2023-03-13T20:48:21.739Z,3.00
2023-03-13T20:50:52.873Z,6.25
2023-03-13T20:53:20.956Z,3.00
2023-03-13T20:55:49.347Z,3.00
2023-03-13T20:58:17.448Z,3.40
2023-03-13T21:00:45.492Z,4.00
2023-03-13T21:03:15.128Z,2.00
2023-03-13T21:05:43.229Z,2.00
2023-03-13T21:08:12.652Z,3.00
2023-03-13T21:10:40.811Z,2.25
2023-03-13T21:13:08.997Z,2.50
2023-03-13T21:15:37.205Z,2.75
2023-03-13T21:18:05.529Z,3.00
2023-03-13T21:20:33.600Z,2.80
2023-03-13T21:23:01.686Z,2.20
2023-03-13T21:25:31.088Z,4.00
2023-03-13T21:27:59.141Z,4.00
2023-03-13T21:30:27.204Z,3.00
2023-03-13T21:32:55.419Z,2.60
2023-03-13T21:35:23.564Z,3.60
2023-03-13T21:37:51.623Z,3.60
2023-03-13T21:40:19.770Z,2.60
2023-03-13T21:42:49.151Z,2.60
2023-03-13T21:45:17.338Z,5.00
2023-03-13T21:47:45.372Z,4.40
2023-03-13T21:50:13.507Z,7.00
2023-03-13T21:52:42.436Z,4.00
2023-03-13T21:55:12.075Z,3.00
2023-03-13T21:57:40.870Z,4.40
2023-03-13T22:00:14.154Z,6.00
2023-03-13T22:02:42.384Z,3.40
2023-03-13T22:05:10.611Z,3.00
2023-03-13T22:07:38.647Z,5.20
2023-03-13T22:10:07.478Z,5.00
2023-03-13T22:12:37.322Z,4.80
2023-03-13T22:15:06.339Z,6.40
2023-03-13T22:17:35.763Z,4.00
2023-03-13T22:20:05.178Z,6.00
2023-03-13T22:22:33.220Z,2.20
2023-03-13T22:25:01.268Z,4.80
2023-03-13T22:27:29.304Z,3.00
2023-03-13T22:29:57.677Z,6.00
2023-03-13T22:32:25.929Z,4.00
2023-03-13T22:34:55.429Z,2.60
2023-03-13T22:37:26.760Z,4.25
2023-03-13T22:39:54.924Z,4.60
2023-03-13T22:42:24.331Z,4.80
2023-03-13T22:44:54.340Z,3.60
2023-03-13T22:47:23.600Z,5.00
2023-03-13T22:49:52.605Z,6.50
2023-03-13T22:52:28.892Z,4.00
2023-03-13T22:54:56.977Z,4.60
2023-03-13T22:57:25.034Z,4.00
2023-03-13T22:59:54.022Z,4.00
2023-03-13T23:02:22.149Z,5.00
2023-03-13T23:04:50.435Z,5.00
2023-03-13T23:07:18.613Z,7.75
2023-03-13T23:09:48.019Z,4.80
2023-03-13T23:12:16.063Z,4.00
2023-03-13T23:14:44.200Z,6.40
2023-03-13T23:17:12.314Z,6.00
2023-03-13T23:19:40.363Z,4.00
2023-03-13T23:22:08.411Z,4.00
2023-03-13T23:24:36.496Z,4.40
2023-03-13T23:27:06.137Z,5.00
2023-03-13T23:29:34.197Z,6.00
2023-03-13T23:32:02.241Z,5.00
2023-03-13T23:34:30.309Z,6.00
2023-03-13T23:36:59.151Z,6.00
2023-03-13T23:39:27.210Z,7.50
2023-03-13T23:41:55.257Z,5.00
2023-03-13T23:44:24.668Z,6.00
2023-03-13T23:46:52.694Z,6.00
2023-03-13T23:49:20.754Z,6.00
2023-03-13T23:51:48.788Z,7.60
2023-03-13T23:54:16.842Z,6.00
2023-03-13T23:56:44.877Z,4.00
2023-03-13T23:59:12.944Z,5.40
